ドバイ国際空港の過去48時間の天気

ドバイ国際空港 (Dubai International Airport)

現在時刻: 3/6 17:24 +04 (3/6 13:24 UTC) 以下の時間は現地時間です。

過去48時間のMETAR気象情報
時間 風向 風速(m/s) 視程 気温(℃) 湿度(%) 気圧(hPa) 天気現象
6 17:00 西 7 10km以上 24 57 1013
6 16:00 西 8 10km以上 25 54 1013
6 15:00 西北西 7 10km以上 25 57 1014
6 14:00 西 6 10km以上 26 54 1015
6 13:00 西 7 10km以上 25 57 1015
6 12:00 西 5 10km以上 25 57 1016
6 11:00 西 5 10km以上 25 61 1017
6 10:00 西 4 10km以上 25 65 1017
6 09:00 西 5 10km以上 24 69 1016
6 08:00 南南西 4 7000m 22 83 1016
6 07:00 南西 3 6000m 22 83 1015
6 06:00 西南西 3 10km以上 23 78 1014
6 05:00 西南西 3 9000m 23 78 1014
6 04:00 西 3 9000m 23 78 1014
6 03:00 西 5 9000m 23 83 1014
6 02:00 西 5 10km以上 24 78 1014
6 01:00 西 4 10km以上 26 51 1014
6 00:00 南西 3 10km以上 26 45 1014
5 23:00 南南西 1 10km以上 27 34 1014
5 22:00 東北東 2 10km以上 28 37 1014
5 21:00 2 10km以上 28 42 1013
5 20:00 北北東 3 10km以上 28 42 1013
5 19:00 北北西 4 10km以上 28 40 1012
5 18:00 北北西 8 10km以上 30 38 1012
5 17:10 北北西 8 10km以上 30 43 1012
5 17:00 北西 9 10km以上 32 29 1012
5 16:44 北西 10 10km以上 33 28 1012
5 16:39 北西 8 10km以上 33 24 1011
5 16:00 北西 6 10km以上 34 28 1011
5 15:00 西 5 10km以上 38 12 1011
5 14:00 西 4 10km以上 38 12 1012
5 13:00 西北西 3 10km以上 37 11 1013
5 12:00 3 10km以上 36 13 1014
5 11:00 不定 2 10km以上 35 13 1015
5 10:00 不定 2 10km以上 32 18 1015
5 09:00 不定 1 10km以上 28 28 1014
5 08:00 不定 1 10km以上 25 36 1014
5 07:00 不定 1 10km以上 23 41 1013
5 06:00 東南東 2 10km以上 23 44 1013
5 05:00 2 10km以上 23 50 1012
5 04:00 東南東 2 10km以上 23 53 1012
5 03:00 東北東 2 10km以上 24 50 1013
5 02:00 2 10km以上 24 50 1013
5 01:00 2 10km以上 25 44 1014
5 00:00 不定 1 10km以上 26 45 1014
4 23:00 2 10km以上 26 42 1014
4 22:00 2 10km以上 27 42 1014
4 21:00 東北東 2 10km以上 27 45 1014
4 20:00 2 10km以上 28 45 1014
4 19:00 北北西 5 10km以上 28 42 1013
4 18:00 北北西 5 10km以上 31 29 1013
OMDB 061300Z 27014KT 220V300 CAVOK 24/15 Q1013 NOSIG
OMDB 061200Z 28015KT CAVOK 25/15 Q1013 NOSIG
OMDB 061100Z 29014KT CAVOK 25/16 Q1014 NOSIG
OMDB 061000Z 28012KT CAVOK 26/16 Q1015 NOSIG
OMDB 060900Z 28013KT CAVOK 25/16 Q1015 NOSIG
OMDB 060800Z 27010KT 230V310 CAVOK 25/16 Q1016 NOSIG
OMDB 060700Z 27009KT 170V310 CAVOK 25/17 Q1017 NOSIG
OMDB 060600Z 27008KT 230V290 9999 FEW020 25/18 Q1017 NOSIG
OMDB 060500Z 27009KT 240V340 9999 SCT019 24/18 Q1016 NOSIG
OMDB 060400Z 21007KT 7000 SCT016 22/19 Q1016 BECMG 28014KT
OMDB 060300Z 22005KT 190V260 6000 SCT015 22/19 Q1015 TEMPO 4000 HZ
OMDB 060200Z 24005KT 9999 FEW015 23/19 Q1014 NOSIG
OMDB 060100Z 24005KT 9000 FEW015 23/19 Q1014 NOSIG
OMDB 060000Z 27006KT 9000 SCT015 23/19 Q1014 NOSIG
OMDB 052300Z 27009KT 9000 BKN015 23/20 Q1014 NOSIG
OMDB 052200Z 28009KT CAVOK 24/20 Q1014 NOSIG
OMDB 052100Z 27008KT CAVOK 26/15 Q1014 NOSIG
OMDB 052000Z 23005KT CAVOK 26/13 Q1014 NOSIG
OMDB 051900Z 21002KT CAVOK 27/10 Q1014 WS ALL RWY NOSIG
OMDB 051800Z 07004KT 010V100 CAVOK 28/12 Q1014 WS ALL RWY NOSIG
OMDB 051700Z 35003KT 280V020 CAVOK 28/14 Q1013 NOSIG
OMDB 051600Z 02005KT CAVOK 28/14 Q1013 NOSIG
OMDB 051500Z 34008KT CAVOK 28/13 Q1012 NOSIG
OMDB 051400Z 33015KT CAVOK 30/14 Q1012 NOSIG
OMDB 051310Z 34015KT CAVOK 30/16 Q1012 NOSIG
OMDB 051300Z 32018G28KT CAVOK 32/12 Q1012 NOSIG
OMDB 051244Z 32019KT CAVOK 33/12 Q1012 NOSIG
OMDB 051239Z 31016G28KT CAVOK 33/10 Q1011 NOSIG
OMDB 051200Z 32011KT CAVOK 34/13 Q1011 NOSIG
OMDB 051100Z 28010KT CAVOK 38/04 Q1011 NOSIG
OMDB 051000Z 27007KT 230V300 CAVOK 38/04 Q1012 BECMG 33015KT
OMDB 050900Z 30005KT 260V360 CAVOK 37/02 Q1013 BECMG 33015KT
OMDB 050800Z 18005KT CAVOK 36/03 Q1014 NOSIG
OMDB 050700Z VRB03KT CAVOK 35/03 Q1015 NOSIG
OMDB 050600Z VRB03KT CAVOK 32/05 Q1015 NOSIG
OMDB 050500Z VRB02KT CAVOK 28/08 Q1014 NOSIG
OMDB 050400Z VRB02KT CAVOK 25/09 Q1014 NOSIG
OMDB 050300Z VRB02KT CAVOK 23/09 Q1013 NOSIG
OMDB 050200Z 11003KT 070V130 CAVOK 23/10 Q1013 NOSIG
OMDB 050100Z 09003KT 060V150 CAVOK 23/12 Q1012 NOSIG
OMDB 050000Z 11004KT 090V150 CAVOK 23/13 Q1012 NOSIG
OMDB 042300Z 06003KT 360V110 CAVOK 24/13 Q1013 NOSIG
OMDB 042200Z 09003KT CAVOK 24/13 Q1013 NOSIG
OMDB 042100Z 09004KT CAVOK 25/12 Q1014 NOSIG
OMDB 042000Z VRB02KT CAVOK 26/13 Q1014 NOSIG
OMDB 041900Z 09003KT CAVOK 26/12 Q1014 NOSIG
OMDB 041800Z 10004KT CAVOK 27/13 Q1014 NOSIG
OMDB 041700Z 07003KT CAVOK 27/14 Q1014 NOSIG
OMDB 041600Z 01003KT 290V060 CAVOK 28/15 Q1014 NOSIG
OMDB 041500Z 34009KT CAVOK 28/14 Q1013 NOSIG
OMDB 041400Z 33009KT CAVOK 31/11 Q1013 NOSIG